sensor_id;sensor_type;location;lat;lon;timestamp;temperature;humidity
67101;DHT22;54019;61.746;16.106;2022-07-03T00:01:37;24.40;46.40
67101;DHT22;54019;61.746;16.106;2022-07-03T00:04:23;24.40;46.30
67101;DHT22;54019;61.746;16.106;2022-07-03T00:07:09;24.40;46.10
67101;DHT22;54019;61.746;16.106;2022-07-03T00:09:56;24.40;46.20
67101;DHT22;54019;61.746;16.106;2022-07-03T00:12:43;24.40;46.50
67101;DHT22;54019;61.746;16.106;2022-07-03T00:15:29;24.40;46.70
67101;DHT22;54019;61.746;16.106;2022-07-03T00:18:15;24.30;46.50
67101;DHT22;54019;61.746;16.106;2022-07-03T00:21:03;24.40;46.20
67101;DHT22;54019;61.746;16.106;2022-07-03T00:23:54;24.40;46.60
67101;DHT22;54019;61.746;16.106;2022-07-03T00:26:43;24.30;46.40
67101;DHT22;54019;61.746;16.106;2022-07-03T00:29:36;24.30;46.20
67101;DHT22;54019;61.746;16.106;2022-07-03T00:32:24;24.30;46.50
67101;DHT22;54019;61.746;16.106;2022-07-03T00:35:16;24.30;46.50
67101;DHT22;54019;61.746;16.106;2022-07-03T00:38:02;24.30;46.30
67101;DHT22;54019;61.746;16.106;2022-07-03T00:40:49;24.30;46.20
67101;DHT22;54019;61.746;16.106;2022-07-03T00:43:35;24.30;46.40
67101;DHT22;54019;61.746;16.106;2022-07-03T00:46:25;24.30;46.30
67101;DHT22;54019;61.746;16.106;2022-07-03T00:49:11;24.30;46.20
67101;DHT22;54019;61.746;16.106;2022-07-03T00:51:58;24.30;46.40
67101;DHT22;54019;61.746;16.106;2022-07-03T00:54:52;24.30;46.50
67101;DHT22;54019;61.746;16.106;2022-07-03T00:57:44;24.30;46.30
67101;DHT22;54019;61.746;16.106;2022-07-03T01:00:31;24.30;46.50
67101;DHT22;54019;61.746;16.106;2022-07-03T01:03:26;24.30;46.40
67101;DHT22;54019;61.746;16.106;2022-07-03T01:06:14;24.20;45.90
67101;DHT22;54019;61.746;16.106;2022-07-03T01:09:03;24.20;46.20
67101;DHT22;54019;61.746;16.106;2022-07-03T01:11:56;24.20;46.20
67101;DHT22;54019;61.746;16.106;2022-07-03T01:14:49;24.20;46.10
67101;DHT22;54019;61.746;16.106;2022-07-03T01:17:42;24.20;46.00
67101;DHT22;54019;61.746;16.106;2022-07-03T01:20:36;24.20;46.00
67101;DHT22;54019;61.746;16.106;2022-07-03T01:23:31;24.20;46.30
67101;DHT22;54019;61.746;16.106;2022-07-03T01:26:24;24.20;46.40
67101;DHT22;54019;61.746;16.106;2022-07-03T01:29:16;24.20;46.00
67101;DHT22;54019;61.746;16.106;2022-07-03T01:32:05;24.20;45.60
67101;DHT22;54019;61.746;16.106;2022-07-03T01:34:53;24.20;45.80
67101;DHT22;54019;61.746;16.106;2022-07-03T01:37:40;24.20;46.40
67101;DHT22;54019;61.746;16.106;2022-07-03T01:40:27;24.20;45.90
67101;DHT22;54019;61.746;16.106;2022-07-03T01:43:15;24.10;45.70
67101;DHT22;54019;61.746;16.106;2022-07-03T01:46:02;24.20;45.60
67101;DHT22;54019;61.746;16.106;2022-07-03T01:48:50;24.20;45.70
67101;DHT22;54019;61.746;16.106;2022-07-03T01:51:37;24.20;45.20
67101;DHT22;54019;61.746;16.106;2022-07-03T01:54:25;24.10;45.30
67101;DHT22;54019;61.746;16.106;2022-07-03T01:57:11;24.10;45.40
67101;DHT22;54019;61.746;16.106;2022-07-03T02:00:01;24.20;45.20
67101;DHT22;54019;61.746;16.106;2022-07-03T02:02:54;24.20;45.80
67101;DHT22;54019;61.746;16.106;2022-07-03T02:05:43;24.10;45.80
67101;DHT22;54019;61.746;16.106;2022-07-03T02:08:37;24.10;45.80
67101;DHT22;54019;61.746;16.106;2022-07-03T02:11:28;24.10;45.60
67101;DHT22;54019;61.746;16.106;2022-07-03T02:14:19;24.20;45.20
67101;DHT22;54019;61.746;16.106;2022-07-03T02:17:15;24.50;45.00
67101;DHT22;54019;61.746;16.106;2022-07-03T02:20:04;24.70;44.30
67101;DHT22;54019;61.746;16.106;2022-07-03T02:22:55;25.00;43.70
67101;DHT22;54019;61.746;16.106;2022-07-03T02:25:44;25.10;43.40
67101;DHT22;54019;61.746;16.106;2022-07-03T02:28:45;25.00;43.10
67101;DHT22;54019;61.746;16.106;2022-07-03T02:31:40;24.90;43.70
67101;DHT22;54019;61.746;16.106;2022-07-03T02:34:31;24.80;43.70
67101;DHT22;54019;61.746;16.106;2022-07-03T02:37:18;24.80;43.70
67101;DHT22;54019;61.746;16.106;2022-07-03T02:40:08;24.70;43.80
67101;DHT22;54019;61.746;16.106;2022-07-03T02:43:02;24.70;43.90
67101;DHT22;54019;61.746;16.106;2022-07-03T02:46:01;24.70;44.00
67101;DHT22;54019;61.746;16.106;2022-07-03T02:48:51;24.70;44.00
67101;DHT22;54019;61.746;16.106;2022-07-03T02:51:44;24.70;44.00
67101;DHT22;54019;61.746;16.106;2022-07-03T02:54:38;24.70;44.00
67101;DHT22;54019;61.746;16.106;2022-07-03T02:57:35;24.70;44.10
67101;DHT22;54019;61.746;16.106;2022-07-03T03:00:24;24.70;43.80
67101;DHT22;54019;61.746;16.106;2022-07-03T03:03:10;24.70;43.70
67101;DHT22;54019;61.746;16.106;2022-07-03T03:06:02;24.70;43.70
67101;DHT22;54019;61.746;16.106;2022-07-03T03:08:52;24.80;43.80
67101;DHT22;54019;61.746;16.106;2022-07-03T03:11:44;24.80;43.90
67101;DHT22;54019;61.746;16.106;2022-07-03T03:14:38;24.80;43.80
67101;DHT22;54019;61.746;16.106;2022-07-03T03:17:26;24.80;43.80
67101;DHT22;54019;61.746;16.106;2022-07-03T03:20:15;24.80;43.70
67101;DHT22;54019;61.746;16.106;2022-07-03T03:23:14;24.90;43.60
67101;DHT22;54019;61.746;16.106;2022-07-03T03:26:03;24.90;43.50
67101;DHT22;54019;61.746;16.106;2022-07-03T03:28:50;24.90;43.30
67101;DHT22;54019;61.746;16.106;2022-07-03T03:31:37;24.90;43.50
67101;DHT22;54019;61.746;16.106;2022-07-03T03:34:24;25.00;43.30
67101;DHT22;54019;61.746;16.106;2022-07-03T03:37:11;25.00;43.30
67101;DHT22;54019;61.746;16.106;2022-07-03T03:39:57;25.00;43.20
67101;DHT22;54019;61.746;16.106;2022-07-03T03:42:45;25.10;43.10
67101;DHT22;54019;61.746;16.106;2022-07-03T03:45:31;25.10;43.10
67101;DHT22;54019;61.746;16.106;2022-07-03T03:48:17;25.10;43.10
67101;DHT22;54019;61.746;16.106;2022-07-03T03:51:04;25.10;43.00
67101;DHT22;54019;61.746;16.106;2022-07-03T03:53:51;25.20;42.90
67101;DHT22;54019;61.746;16.106;2022-07-03T03:56:37;25.20;42.90
67101;DHT22;54019;61.746;16.106;2022-07-03T03:59:24;25.20;42.90
67101;DHT22;54019;61.746;16.106;2022-07-03T04:02:11;25.20;42.90
67101;DHT22;54019;61.746;16.106;2022-07-03T04:04:57;25.30;42.90
67101;DHT22;54019;61.746;16.106;2022-07-03T04:07:43;25.30;42.70
67101;DHT22;54019;61.746;16.106;2022-07-03T04:10:29;25.30;42.80
67101;DHT22;54019;61.746;16.106;2022-07-03T04:13:15;25.30;42.60
67101;DHT22;54019;61.746;16.106;2022-07-03T04:16:03;25.30;42.50
67101;DHT22;54019;61.746;16.106;2022-07-03T04:18:50;25.40;42.50
67101;DHT22;54019;61.746;16.106;2022-07-03T04:21:36;25.40;42.40
67101;DHT22;54019;61.746;16.106;2022-07-03T04:24:22;25.40;42.40
67101;DHT22;54019;61.746;16.106;2022-07-03T04:27:09;25.40;42.40
67101;DHT22;54019;61.746;16.106;2022-07-03T04:29:55;25.50;42.40
67101;DHT22;54019;61.746;16.106;2022-07-03T04:32:42;25.50;42.30
67101;DHT22;54019;61.746;16.106;2022-07-03T04:35:28;25.50;42.30
67101;DHT22;54019;61.746;16.106;2022-07-03T04:38:15;25.60;42.20
67101;DHT22;54019;61.746;16.106;2022-07-03T04:41:01;25.60;42.20
67101;DHT22;54019;61.746;16.106;2022-07-03T04:43:47;25.60;42.20
67101;DHT22;54019;61.746;16.106;2022-07-03T04:46:33;25.60;42.10
67101;DHT22;54019;61.746;16.106;2022-07-03T04:49:21;25.70;42.10
67101;DHT22;54019;61.746;16.106;2022-07-03T04:52:07;25.70;42.00
67101;DHT22;54019;61.746;16.106;2022-07-03T04:54:53;25.70;42.00
67101;DHT22;54019;61.746;16.106;2022-07-03T04:57:40;25.70;42.10
67101;DHT22;54019;61.746;16.106;2022-07-03T05:00:26;25.80;41.80
67101;DHT22;54019;61.746;16.106;2022-07-03T05:03:12;25.80;41.80
67101;DHT22;54019;61.746;16.106;2022-07-03T05:06:00;25.90;41.60
67101;DHT22;54019;61.746;16.106;2022-07-03T05:08:46;25.90;41.60
67101;DHT22;54019;61.746;16.106;2022-07-03T05:11:32;25.90;41.50
67101;DHT22;54019;61.746;16.106;2022-07-03T05:14:18;26.00;41.90
67101;DHT22;54019;61.746;16.106;2022-07-03T05:17:04;26.00;41.90
67101;DHT22;54019;61.746;16.106;2022-07-03T05:19:50;26.00;41.90
67101;DHT22;54019;61.746;16.106;2022-07-03T05:22:38;26.00;41.80
67101;DHT22;54019;61.746;16.106;2022-07-03T05:25:24;26.00;41.70
67101;DHT22;54019;61.746;16.106;2022-07-03T05:28:11;26.10;41.60
67101;DHT22;54019;61.746;16.106;2022-07-03T05:30:57;26.10;41.40
67101;DHT22;54019;61.746;16.106;2022-07-03T05:33:43;26.10;41.40
67101;DHT22;54019;61.746;16.106;2022-07-03T05:36:29;26.10;41.40
67101;DHT22;54019;61.746;16.106;2022-07-03T05:39:17;26.20;41.30
67101;DHT22;54019;61.746;16.106;2022-07-03T05:42:04;26.20;41.20
67101;DHT22;54019;61.746;16.106;2022-07-03T05:44:50;26.20;41.20
67101;DHT22;54019;61.746;16.106;2022-07-03T05:47:36;26.20;41.10
67101;DHT22;54019;61.746;16.106;2022-07-03T05:50:22;26.20;41.00
67101;DHT22;54019;61.746;16.106;2022-07-03T05:53:08;26.30;40.80
67101;DHT22;54019;61.746;16.106;2022-07-03T05:55:56;26.30;40.80
67101;DHT22;54019;61.746;16.106;2022-07-03T05:58:43;26.30;40.70
67101;DHT22;54019;61.746;16.106;2022-07-03T06:01:29;26.30;40.30
67101;DHT22;54019;61.746;16.106;2022-07-03T06:04:15;26.40;40.60
67101;DHT22;54019;61.746;16.106;2022-07-03T06:07:02;26.40;40.30
67101;DHT22;54019;61.746;16.106;2022-07-03T06:09:48;26.40;40.40
67101;DHT22;54019;61.746;16.106;2022-07-03T06:12:35;26.40;40.30
67101;DHT22;54019;61.746;16.106;2022-07-03T06:15:21;26.30;40.50
67101;DHT22;54019;61.746;16.106;2022-07-03T06:18:08;26.30;40.50
67101;DHT22;54019;61.746;16.106;2022-07-03T06:20:54;26.40;40.70
67101;DHT22;54019;61.746;16.106;2022-07-03T06:23:40;26.40;40.30
67101;DHT22;54019;61.746;16.106;2022-07-03T06:26:26;26.30;40.30
67101;DHT22;54019;61.746;16.106;2022-07-03T06:29:14;26.30;40.40
67101;DHT22;54019;61.746;16.106;2022-07-03T06:32:00;26.20;40.70
67101;DHT22;54019;61.746;16.106;2022-07-03T06:34:46;26.20;40.70
67101;DHT22;54019;61.746;16.106;2022-07-03T06:37:32;26.20;40.90
67101;DHT22;54019;61.746;16.106;2022-07-03T06:40:18;26.10;41.10
67101;DHT22;54019;61.746;16.106;2022-07-03T06:43:04;26.10;41.10
67101;DHT22;54019;61.746;16.106;2022-07-03T06:45:52;26.10;40.90
67101;DHT22;54019;61.746;16.106;2022-07-03T06:48:38;26.10;41.00
67101;DHT22;54019;61.746;16.106;2022-07-03T06:51:24;26.00;40.90
67101;DHT22;54019;61.746;16.106;2022-07-03T06:54:10;25.90;40.50
67101;DHT22;54019;61.746;16.106;2022-07-03T06:56:56;25.90;41.50
67101;DHT22;54019;61.746;16.106;2022-07-03T06:59:42;26.00;41.30
67101;DHT22;54019;61.746;16.106;2022-07-03T07:02:30;26.00;41.80
67101;DHT22;54019;61.746;16.106;2022-07-03T07:05:16;26.00;41.80
67101;DHT22;54019;61.746;16.106;2022-07-03T07:08:03;26.10;41.60
67101;DHT22;54019;61.746;16.106;2022-07-03T07:10:49;26.10;41.50
67101;DHT22;54019;61.746;16.106;2022-07-03T07:13:35;26.20;41.40
67101;DHT22;54019;61.746;16.106;2022-07-03T07:16:21;26.20;41.30
67101;DHT22;54019;61.746;16.106;2022-07-03T07:19:09;26.30;41.30
67101;DHT22;54019;61.746;16.106;2022-07-03T07:21:55;26.30;41.20
67101;DHT22;54019;61.746;16.106;2022-07-03T07:24:41;26.30;41.10
67101;DHT22;54019;61.746;16.106;2022-07-03T07:27:27;26.30;41.10
67101;DHT22;54019;61.746;16.106;2022-07-03T07:30:14;26.40;41.10
67101;DHT22;54019;61.746;16.106;2022-07-03T07:33:00;26.40;41.00
67101;DHT22;54019;61.746;16.106;2022-07-03T07:35:47;26.40;40.90
67101;DHT22;54019;61.746;16.106;2022-07-03T07:38:34;26.40;40.90
67101;DHT22;54019;61.746;16.106;2022-07-03T07:41:20;26.40;40.90
67101;DHT22;54019;61.746;16.106;2022-07-03T07:44:06;26.40;40.90
67101;DHT22;54019;61.746;16.106;2022-07-03T07:46:52;26.40;40.90
67101;DHT22;54019;61.746;16.106;2022-07-03T07:49:38;26.40;40.70
67101;DHT22;54019;61.746;16.106;2022-07-03T07:52:26;26.50;40.60
67101;DHT22;54019;61.746;16.106;2022-07-03T07:55:12;26.50;40.70
67101;DHT22;54019;61.746;16.106;2022-07-03T07:57:58;26.50;40.50
67101;DHT22;54019;61.746;16.106;2022-07-03T08:00:44;26.50;40.40
67101;DHT22;54019;61.746;16.106;2022-07-03T08:03:30;26.50;40.50
67101;DHT22;54019;61.746;16.106;2022-07-03T08:06:17;26.50;40.60
67101;DHT22;54019;61.746;16.106;2022-07-03T08:09:04;26.50;40.50
67101;DHT22;54019;61.746;16.106;2022-07-03T08:11:51;26.50;40.60
67101;DHT22;54019;61.746;16.106;2022-07-03T08:14:37;26.50;40.60
67101;DHT22;54019;61.746;16.106;2022-07-03T08:17:23;26.50;40.70
67101;DHT22;54019;61.746;16.106;2022-07-03T08:20:10;26.50;40.70
67101;DHT22;54019;61.746;16.106;2022-07-03T08:22:56;26.50;40.70
67101;DHT22;54019;61.746;16.106;2022-07-03T08:25:43;26.50;40.70
67101;DHT22;54019;61.746;16.106;2022-07-03T08:28:29;26.50;40.60
67101;DHT22;54019;61.746;16.106;2022-07-03T08:31:16;26.50;40.60
67101;DHT22;54019;61.746;16.106;2022-07-03T08:34:02;26.50;40.50
67101;DHT22;54019;61.746;16.106;2022-07-03T08:36:48;26.40;40.50
67101;DHT22;54019;61.746;16.106;2022-07-03T08:39:35;26.40;40.60
67101;DHT22;54019;61.746;16.106;2022-07-03T08:42:22;26.40;40.70
67101;DHT22;54019;61.746;16.106;2022-07-03T08:45:13;26.40;40.60
67101;DHT22;54019;61.746;16.106;2022-07-03T08:48:00;26.30;40.70
67101;DHT22;54019;61.746;16.106;2022-07-03T08:50:47;26.30;40.70
67101;DHT22;54019;61.746;16.106;2022-07-03T08:53:34;26.30;40.60
67101;DHT22;54019;61.746;16.106;2022-07-03T08:56:21;26.30;40.60
67101;DHT22;54019;61.746;16.106;2022-07-03T08:59:09;26.30;40.50
67101;DHT22;54019;61.746;16.106;2022-07-03T09:01:55;26.30;40.40
67101;DHT22;54019;61.746;16.106;2022-07-03T09:04:41;26.30;40.50
67101;DHT22;54019;61.746;16.106;2022-07-03T09:07:30;26.20;40.50
67101;DHT22;54019;61.746;16.106;2022-07-03T09:10:17;26.20;40.70
67101;DHT22;54019;61.746;16.106;2022-07-03T09:13:04;26.20;40.50
67101;DHT22;54019;61.746;16.106;2022-07-03T09:15:51;26.20;40.60
67101;DHT22;54019;61.746;16.106;2022-07-03T09:18:38;26.20;40.50
67101;DHT22;54019;61.746;16.106;2022-07-03T09:21:25;26.20;40.50
67101;DHT22;54019;61.746;16.106;2022-07-03T09:24:11;26.20;40.50
67101;DHT22;54019;61.746;16.106;2022-07-03T09:26:57;26.20;40.50
67101;DHT22;54019;61.746;16.106;2022-07-03T09:29:51;26.20;40.50
67101;DHT22;54019;61.746;16.106;2022-07-03T09:32:48;26.20;40.40
67101;DHT22;54019;61.746;16.106;2022-07-03T09:35:34;26.20;40.40
67101;DHT22;54019;61.746;16.106;2022-07-03T09:38:20;26.20;40.50
67101;DHT22;54019;61.746;16.106;2022-07-03T09:41:07;26.20;40.40
67101;DHT22;54019;61.746;16.106;2022-07-03T09:43:53;26.20;40.30
67101;DHT22;54019;61.746;16.106;2022-07-03T09:46:39;26.20;40.40
67101;DHT22;54019;61.746;16.106;2022-07-03T09:49:26;26.20;40.40
67101;DHT22;54019;61.746;16.106;2022-07-03T09:52:29;26.20;40.30
67101;DHT22;54019;61.746;16.106;2022-07-03T09:55:18;26.20;40.30
67101;DHT22;54019;61.746;16.106;2022-07-03T09:58:04;26.20;40.30
67101;DHT22;54019;61.746;16.106;2022-07-03T10:00:50;26.20;40.30
67101;DHT22;54019;61.746;16.106;2022-07-03T10:03:36;26.20;40.20
67101;DHT22;54019;61.746;16.106;2022-07-03T10:06:24;26.20;40.20
67101;DHT22;54019;61.746;16.106;2022-07-03T10:09:10;26.20;40.10
67101;DHT22;54019;61.746;16.106;2022-07-03T10:11:57;26.20;40.00
67101;DHT22;54019;61.746;16.106;2022-07-03T10:14:43;26.30;40.00
67101;DHT22;54019;61.746;16.106;2022-07-03T10:17:30;26.30;40.00
67101;DHT22;54019;61.746;16.106;2022-07-03T10:20:23;26.20;40.00
67101;DHT22;54019;61.746;16.106;2022-07-03T10:23:12;26.30;40.00
67101;DHT22;54019;61.746;16.106;2022-07-03T10:25:58;26.30;40.00
67101;DHT22;54019;61.746;16.106;2022-07-03T10:28:44;26.30;40.00
67101;DHT22;54019;61.746;16.106;2022-07-03T10:31:32;26.30;40.00
67101;DHT22;54019;61.746;16.106;2022-07-03T10:34:20;26.30;40.10
67101;DHT22;54019;61.746;16.106;2022-07-03T10:37:06;26.30;40.20
67101;DHT22;54019;61.746;16.106;2022-07-03T10:39:58;26.20;40.10
67101;DHT22;54019;61.746;16.106;2022-07-03T10:42:48;26.20;40.10
67101;DHT22;54019;61.746;16.106;2022-07-03T10:45:37;26.20;40.10
67101;DHT22;54019;61.746;16.106;2022-07-03T10:51:55;26.20;40.00
67101;DHT22;54019;61.746;16.106;2022-07-03T10:54:49;26.20;40.10
67101;DHT22;54019;61.746;16.106;2022-07-03T10:57:38;26.20;40.00
67101;DHT22;54019;61.746;16.106;2022-07-03T11:00:24;26.20;40.00
67101;DHT22;54019;61.746;16.106;2022-07-03T11:03:10;26.10;40.10
67101;DHT22;54019;61.746;16.106;2022-07-03T11:05:56;26.10;40.10
67101;DHT22;54019;61.746;16.106;2022-07-03T11:09:03;26.10;39.90
67101;DHT22;54019;61.746;16.106;2022-07-03T11:11:50;26.20;39.90
67101;DHT22;54019;61.746;16.106;2022-07-03T11:14:37;26.10;40.00
67101;DHT22;54019;61.746;16.106;2022-07-03T11:17:23;26.20;40.10
67101;DHT22;54019;61.746;16.106;2022-07-03T11:20:25;26.20;40.00
67101;DHT22;54019;61.746;16.106;2022-07-03T11:23:16;26.10;40.10
67101;DHT22;54019;61.746;16.106;2022-07-03T11:26:20;26.10;40.30
67101;DHT22;54019;61.746;16.106;2022-07-03T11:29:07;26.10;40.40
67101;DHT22;54019;61.746;16.106;2022-07-03T11:31:54;26.10;40.50
67101;DHT22;54019;61.746;16.106;2022-07-03T11:34:42;26.10;40.50
67101;DHT22;54019;61.746;16.106;2022-07-03T11:37:30;26.10;40.50
67101;DHT22;54019;61.746;16.106;2022-07-03T11:40:17;26.10;40.50
67101;DHT22;54019;61.746;16.106;2022-07-03T11:43:05;26.10;40.50
67101;DHT22;54019;61.746;16.106;2022-07-03T11:45:51;26.10;40.60
67101;DHT22;54019;61.746;16.106;2022-07-03T11:48:39;26.00;40.70
67101;DHT22;54019;61.746;16.106;2022-07-03T11:51:25;26.10;40.70
67101;DHT22;54019;61.746;16.106;2022-07-03T11:54:11;26.10;40.70
67101;DHT22;54019;61.746;16.106;2022-07-03T11:56:57;26.00;40.60
67101;DHT22;54019;61.746;16.106;2022-07-03T11:59:44;26.00;40.60
67101;DHT22;54019;61.746;16.106;2022-07-03T12:02:31;26.00;40.60
67101;DHT22;54019;61.746;16.106;2022-07-03T12:05:18;26.00;40.60
67101;DHT22;54019;61.746;16.106;2022-07-03T12:08:05;26.00;40.60
67101;DHT22;54019;61.746;16.106;2022-07-03T12:10:57;26.00;40.60
67101;DHT22;54019;61.746;16.106;2022-07-03T12:13:43;26.00;40.70
67101;DHT22;54019;61.746;16.106;2022-07-03T12:16:32;26.00;40.90
67101;DHT22;54019;61.746;16.106;2022-07-03T12:19:19;26.00;40.90
67101;DHT22;54019;61.746;16.106;2022-07-03T12:22:07;26.10;40.80
67101;DHT22;54019;61.746;16.106;2022-07-03T12:25:01;26.00;40.80
67101;DHT22;54019;61.746;16.106;2022-07-03T12:27:47;26.00;40.80
67101;DHT22;54019;61.746;16.106;2022-07-03T12:30:33;26.00;40.90
67101;DHT22;54019;61.746;16.106;2022-07-03T12:33:20;26.00;40.90
67101;DHT22;54019;61.746;16.106;2022-07-03T12:36:08;26.00;40.90
67101;DHT22;54019;61.746;16.106;2022-07-03T12:38:57;26.00;40.70
67101;DHT22;54019;61.746;16.106;2022-07-03T12:41:43;26.00;40.70
67101;DHT22;54019;61.746;16.106;2022-07-03T12:44:30;26.00;40.60
67101;DHT22;54019;61.746;16.106;2022-07-03T12:47:16;26.00;40.70
67101;DHT22;54019;61.746;16.106;2022-07-03T12:50:04;26.00;40.60
67101;DHT22;54019;61.746;16.106;2022-07-03T12:52:52;26.00;40.60
67101;DHT22;54019;61.746;16.106;2022-07-03T12:55:45;26.00;40.50
67101;DHT22;54019;61.746;16.106;2022-07-03T12:58:34;26.00;40.60
67101;DHT22;54019;61.746;16.106;2022-07-03T13:01:24;26.00;40.50
67101;DHT22;54019;61.746;16.106;2022-07-03T13:04:11;26.00;40.50
67101;DHT22;54019;61.746;16.106;2022-07-03T13:07:00;26.00;40.60
67101;DHT22;54019;61.746;16.106;2022-07-03T13:09:52;26.00;40.70
67101;DHT22;54019;61.746;16.106;2022-07-03T13:12:47;26.00;40.50
67101;DHT22;54019;61.746;16.106;2022-07-03T13:15:34;26.00;40.50
67101;DHT22;54019;61.746;16.106;2022-07-03T13:18:20;26.00;40.60
67101;DHT22;54019;61.746;16.106;2022-07-03T13:21:07;26.00;40.40
67101;DHT22;54019;61.746;16.106;2022-07-03T13:23:53;26.00;40.50
67101;DHT22;54019;61.746;16.106;2022-07-03T13:26:39;25.90;40.00
67101;DHT22;54019;61.746;16.106;2022-07-03T13:29:27;26.00;40.30
67101;DHT22;54019;61.746;16.106;2022-07-03T13:32:13;25.90;39.90
67101;DHT22;54019;61.746;16.106;2022-07-03T13:34:59;25.90;40.00
67101;DHT22;54019;61.746;16.106;2022-07-03T13:37:45;25.90;40.00
67101;DHT22;54019;61.746;16.106;2022-07-03T13:40:31;25.90;40.00
67101;DHT22;54019;61.746;16.106;2022-07-03T13:43:17;25.90;40.00
67101;DHT22;54019;61.746;16.106;2022-07-03T13:46:05;25.90;40.10
67101;DHT22;54019;61.746;16.106;2022-07-03T13:48:51;25.90;40.10
67101;DHT22;54019;61.746;16.106;2022-07-03T13:51:38;25.90;40.10
67101;DHT22;54019;61.746;16.106;2022-07-03T13:54:24;25.90;40.00
67101;DHT22;54019;61.746;16.106;2022-07-03T13:57:10;25.90;40.00
67101;DHT22;54019;61.746;16.106;2022-07-03T13:59:56;25.90;40.10
67101;DHT22;54019;61.746;16.106;2022-07-03T14:02:44;25.90;40.00
67101;DHT22;54019;61.746;16.106;2022-07-03T14:05:30;25.90;40.00
67101;DHT22;54019;61.746;16.106;2022-07-03T14:08:18;25.90;40.00
67101;DHT22;54019;61.746;16.106;2022-07-03T14:11:04;25.90;40.00
67101;DHT22;54019;61.746;16.106;2022-07-03T14:13:50;25.80;40.00
67101;DHT22;54019;61.746;16.106;2022-07-03T14:16:37;25.80;40.10
67101;DHT22;54019;61.746;16.106;2022-07-03T14:19:24;25.80;40.10
67101;DHT22;54019;61.746;16.106;2022-07-03T14:22:10;25.80;40.00
67101;DHT22;54019;61.746;16.106;2022-07-03T14:24:56;25.80;40.00
67101;DHT22;54019;61.746;16.106;2022-07-03T14:27:42;25.80;40.00
67101;DHT22;54019;61.746;16.106;2022-07-03T14:30:29;25.80;40.10
67101;DHT22;54019;61.746;16.106;2022-07-03T14:33:15;25.80;40.10
67101;DHT22;54019;61.746;16.106;2022-07-03T14:36:03;25.80;40.00
67101;DHT22;54019;61.746;16.106;2022-07-03T14:38:49;25.80;40.00
67101;DHT22;54019;61.746;16.106;2022-07-03T14:41:35;25.80;40.10
67101;DHT22;54019;61.746;16.106;2022-07-03T14:44:21;25.80;40.00
67101;DHT22;54019;61.746;16.106;2022-07-03T14:47:07;25.80;40.10
67101;DHT22;54019;61.746;16.106;2022-07-03T14:49:54;25.80;40.00
67101;DHT22;54019;61.746;16.106;2022-07-03T14:52:41;25.80;39.90
67101;DHT22;54019;61.746;16.106;2022-07-03T14:55:31;25.80;40.00
67101;DHT22;54019;61.746;16.106;2022-07-03T14:58:18;25.80;40.00
67101;DHT22;54019;61.746;16.106;2022-07-03T15:01:06;25.80;40.10
67101;DHT22;54019;61.746;16.106;2022-07-03T15:03:56;25.80;40.10
67101;DHT22;54019;61.746;16.106;2022-07-03T15:06:46;25.70;40.20
67101;DHT22;54019;61.746;16.106;2022-07-03T15:09:37;25.70;40.20
67101;DHT22;54019;61.746;16.106;2022-07-03T15:12:25;25.70;40.30
67101;DHT22;54019;61.746;16.106;2022-07-03T15:15:13;25.70;40.30
67101;DHT22;54019;61.746;16.106;2022-07-03T15:18:01;25.70;40.20
67101;DHT22;54019;61.746;16.106;2022-07-03T15:20:50;25.70;40.10
67101;DHT22;54019;61.746;16.106;2022-07-03T15:23:36;25.70;40.30
67101;DHT22;54019;61.746;16.106;2022-07-03T15:26:25;25.70;40.30
67101;DHT22;54019;61.746;16.106;2022-07-03T15:29:11;25.70;40.30
67101;DHT22;54019;61.746;16.106;2022-07-03T15:32:01;25.70;40.30
67101;DHT22;54019;61.746;16.106;2022-07-03T15:34:47;25.70;40.30
67101;DHT22;54019;61.746;16.106;2022-07-03T15:37:40;25.60;40.40
67101;DHT22;54019;61.746;16.106;2022-07-03T15:40:32;25.60;40.40
67101;DHT22;54019;61.746;16.106;2022-07-03T15:43:33;25.60;40.30
67101;DHT22;54019;61.746;16.106;2022-07-03T15:46:30;25.60;40.40
67101;DHT22;54019;61.746;16.106;2022-07-03T15:49:27;25.60;40.30
67101;DHT22;54019;61.746;16.106;2022-07-03T15:52:16;25.60;40.40
67101;DHT22;54019;61.746;16.106;2022-07-03T15:55:05;25.60;40.50
67101;DHT22;54019;61.746;16.106;2022-07-03T15:57:57;25.60;40.50
67101;DHT22;54019;61.746;16.106;2022-07-03T16:00:45;25.60;40.50
67101;DHT22;54019;61.746;16.106;2022-07-03T16:03:35;25.60;40.60
67101;DHT22;54019;61.746;16.106;2022-07-03T16:06:29;25.60;40.60
67101;DHT22;54019;61.746;16.106;2022-07-03T16:09:16;25.60;40.60
67101;DHT22;54019;61.746;16.106;2022-07-03T16:12:03;25.60;40.70
67101;DHT22;54019;61.746;16.106;2022-07-03T16:14:50;25.60;40.60
67101;DHT22;54019;61.746;16.106;2022-07-03T16:17:37;25.60;40.60
67101;DHT22;54019;61.746;16.106;2022-07-03T16:20:26;25.60;40.70
67101;DHT22;54019;61.746;16.106;2022-07-03T16:23:13;25.60;40.60
67101;DHT22;54019;61.746;16.106;2022-07-03T16:25:59;25.60;40.60
67101;DHT22;54019;61.746;16.106;2022-07-03T16:28:46;25.50;40.70
67101;DHT22;54019;61.746;16.106;2022-07-03T16:31:36;25.50;40.70
67101;DHT22;54019;61.746;16.106;2022-07-03T16:34:25;25.50;40.60
67101;DHT22;54019;61.746;16.106;2022-07-03T16:37:15;25.50;40.70
67101;DHT22;54019;61.746;16.106;2022-07-03T16:40:06;25.50;40.70
67101;DHT22;54019;61.746;16.106;2022-07-03T16:42:53;25.50;40.70
67101;DHT22;54019;61.746;16.106;2022-07-03T16:45:40;25.50;40.70
67101;DHT22;54019;61.746;16.106;2022-07-03T16:48:28;25.50;40.80
67101;DHT22;54019;61.746;16.106;2022-07-03T16:51:17;25.50;40.80
67101;DHT22;54019;61.746;16.106;2022-07-03T16:54:03;25.40;40.80
67101;DHT22;54019;61.746;16.106;2022-07-03T16:56:50;25.50;40.70
67101;DHT22;54019;61.746;16.106;2022-07-03T16:59:37;25.50;40.70
67101;DHT22;54019;61.746;16.106;2022-07-03T17:02:25;25.40;40.70
67101;DHT22;54019;61.746;16.106;2022-07-03T17:05:14;25.50;40.70
67101;DHT22;54019;61.746;16.106;2022-07-03T17:08:02;25.40;41.40
67101;DHT22;54019;61.746;16.106;2022-07-03T17:10:49;25.50;40.70
67101;DHT22;54019;61.746;16.106;2022-07-03T17:13:35;25.50;40.60
67101;DHT22;54019;61.746;16.106;2022-07-03T17:16:22;25.50;40.60
67101;DHT22;54019;61.746;16.106;2022-07-03T17:19:16;25.40;40.70
67101;DHT22;54019;61.746;16.106;2022-07-03T17:22:05;25.40;40.70
67101;DHT22;54019;61.746;16.106;2022-07-03T17:24:56;25.40;40.70
67101;DHT22;54019;61.746;16.106;2022-07-03T17:27:43;25.40;40.60